Time;durP1;ratioP1;P1;durP2;ratioP2;P2;SDS_P1;SDS_P2;PMS_P1;PMS_P2;Temp;Humidity;BMP_temperature;BMP_pressure;BME280_temperature;BME280_humidity;BME280_pressure;Samples;Min_cycle;Max_cycle;Signal;HPM_P1;HPM_P2
2023/01/04 00:01:46;;;;;;;19.20;13.02;;;;;;;;;;10401689;28;20030;-61
2023/01/04 00:06:46;;;;;;;17.67;11.97;;;;;;;;;;10404905;28;20112;-61
2023/01/04 00:11:47;;;;;;;23.20;12.53;;;;;;;;;;10401046;28;20520;-61
2023/01/04 00:16:47;;;;;;;19.83;12.10;;;;;;;;;;10397949;28;20018;-61
2023/01/04 00:21:47;;;;;;;16.20;11.87;;;;;;;;;;10403351;28;20116;-61
2023/01/04 00:26:48;;;;;;;22.85;12.60;;;;;;;;;;10394535;28;20027;-62
2023/01/04 00:31:48;;;;;;;17.90;12.33;;;;;;;;;;10402755;28;20116;-61
2023/01/04 00:36:48;;;;;;;18.55;12.07;;;;;;;;;;10403008;28;20085;-61
2023/01/04 00:41:50;;;;;;;19.38;11.75;;;;;;;;;;10400233;28;20038;-61
2023/01/04 00:46:50;;;;;;;19.52;13.02;;;;;;;;;;10388558;28;20034;-61
2023/01/04 00:51:50;;;;;;;20.10;13.27;;;;;;;;;;10381463;28;20551;-61
2023/01/04 00:56:51;;;;;;;17.45;11.93;;;;;;;;;;10376697;28;20177;-61
2023/01/04 01:01:51;;;;;;;16.63;11.65;;;;;;;;;;10409433;28;20117;-61
2023/01/04 01:06:51;;;;;;;18.70;12.00;;;;;;;;;;10384509;28;20109;-61
2023/01/04 01:11:52;;;;;;;19.77;12.27;;;;;;;;;;10395800;28;20029;-61
2023/01/04 01:16:53;;;;;;;20.38;12.90;;;;;;;;;;10382381;28;20025;-61
2023/01/04 01:21:55;;;;;;;15.88;11.77;;;;;;;;;;10405035;28;20025;-61
2023/01/04 01:26:56;;;;;;;16.55;10.95;;;;;;;;;;10378159;28;20385;-62
2023/01/04 01:31:56;;;;;;;16.42;11.00;;;;;;;;;;10403004;28;20026;-61
2023/01/04 01:36:56;;;;;;;17.15;10.88;;;;;;;;;;10396364;28;20018;-61
2023/01/04 01:41:58;;;;;;;17.93;11.63;;;;;;;;;;10390758;28;20025;-61
2023/01/04 01:46:58;;;;;;;15.52;11.07;;;;;;;;;;10404738;28;20493;-61
2023/01/04 01:52:01;;;;;;;14.48;11.45;;;;;;;;;;10399686;28;20037;-61
2023/01/04 01:57:03;;;;;;;14.70;10.05;;;;;;;;;;10393951;28;20515;-62
2023/01/04 02:02:03;;;;;;;16.98;11.80;;;;;;;;;;10392853;28;20694;-61
2023/01/04 02:07:04;;;;;;;15.05;11.20;;;;;;;;;;10374168;28;20049;-61
2023/01/04 02:12:09;;;;;;;16.33;10.98;;;;;;;;;;10378653;28;20428;-61
2023/01/04 02:17:13;;;;;;;15.65;10.88;;;;;;;;;;10390919;28;20133;-61
2023/01/04 02:22:13;;;;;;;16.27;10.20;;;;;;;;;;10375671;28;20022;-61
2023/01/04 02:27:31;;;;;;;13.85;10.23;;;;;;;;;;10384849;28;20045;-61
2023/01/04 02:32:37;;;;;;;17.30;10.55;;;;;;;;;;10388253;28;20045;-61
2023/01/04 02:37:40;;;;;;;14.30;10.50;;;;;;;;;;10406427;28;20091;-60
2023/01/04 02:53:44;;;;;;;13.48;9.88;;;;;;;;;;10387247;28;20038;-61
2023/01/04 02:58:53;;;;;;;17.02;10.82;;;;;;;;;;10370479;28;20049;-61
2023/01/04 03:09:20;;;;;;;14.60;9.98;;;;;;;;;;10403512;28;20033;-61
2023/01/04 03:14:23;;;;;;;11.45;9.77;;;;;;;;;;10387419;28;20423;-61
2023/01/04 03:35:28;;;;;;;13.27;9.40;;;;;;;;;;10393707;28;20041;-60
2023/01/04 03:51:29;;;;;;;12.32;8.52;;;;;;;;;;10407033;28;20037;-60
2023/01/04 03:56:31;;;;;;;12.77;9.25;;;;;;;;;;10380732;28;20649;-60
2023/01/04 04:01:31;;;;;;;14.30;9.95;;;;;;;;;;10382957;28;20033;-60
2023/01/04 04:11:50;;;;;;;11.73;8.57;;;;;;;;;;10401425;28;20826;-60
2023/01/04 04:16:51;;;;;;;11.52;8.52;;;;;;;;;;10395344;28;20018;-61
2023/01/04 04:21:51;;;;;;;13.40;8.93;;;;;;;;;;10390574;28;20033;-61
2023/01/04 04:26:53;;;;;;;10.43;8.25;;;;;;;;;;10385094;28;20033;-61
2023/01/04 04:31:53;;;;;;;11.40;8.65;;;;;;;;;;10379866;28;20045;-60
2023/01/04 04:36:53;;;;;;;12.90;8.40;;;;;;;;;;10398195;28;20028;-60
2023/01/04 04:41:54;;;;;;;13.47;8.97;;;;;;;;;;10406953;28;20069;-60
2023/01/04 04:46:54;;;;;;;13.30;8.30;;;;;;;;;;10400617;28;20030;-61
2023/01/04 04:51:54;;;;;;;11.05;8.55;;;;;;;;;;10393948;28;20038;-61
2023/01/04 04:56:55;;;;;;;13.27;8.67;;;;;;;;;;10388046;28;20025;-60
2023/01/04 05:01:55;;;;;;;11.73;8.73;;;;;;;;;;10381556;28;20395;-60
2023/01/04 05:06:55;;;;;;;10.52;8.70;;;;;;;;;;10394543;28;20029;-60
2023/01/04 05:17:14;;;;;;;10.65;8.43;;;;;;;;;;10393474;28;20140;-61
2023/01/04 05:22:14;;;;;;;12.93;8.93;;;;;;;;;;10385330;28;20045;-61
2023/01/04 05:27:15;;;;;;;10.20;7.90;;;;;;;;;;10399317;28;20493;-61
2023/01/04 05:32:15;;;;;;;10.80;8.10;;;;;;;;;;10387691;28;20439;-60
2023/01/04 05:37:15;;;;;;;11.10;7.90;;;;;;;;;;10408801;28;20028;-61
2023/01/04 05:42:24;;;;;;;11.65;8.88;;;;;;;;;;10409901;28;20029;-60
2023/01/04 05:47:25;;;;;;;10.77;7.90;;;;;;;;;;10400631;28;20037;-61
2023/01/04 05:52:25;;;;;;;9.50;7.57;;;;;;;;;;10396227;28;20049;-60
2023/01/04 05:57:26;;;;;;;11.30;8.35;;;;;;;;;;10392705;28;20029;-60
2023/01/04 06:02:27;;;;;;;10.40;8.07;;;;;;;;;;10409016;28;20029;-60
2023/01/04 06:07:27;;;;;;;11.20;8.45;;;;;;;;;;10387549;28;20033;-60
2023/01/04 06:12:28;;;;;;;11.03;8.10;;;;;;;;;;10401639;28;20029;-60
2023/01/04 06:17:28;;;;;;;10.40;7.82;;;;;;;;;;10390511;28;20020;-61
2023/01/04 06:22:29;;;;;;;8.98;7.22;;;;;;;;;;10384313;28;20021;-59
2023/01/04 06:27:29;;;;;;;9.95;7.03;;;;;;;;;;10377416;28;20044;-58
2023/01/04 06:32:29;;;;;;;11.30;7.85;;;;;;;;;;10374353;28;20025;-59
2023/01/04 06:37:30;;;;;;;9.02;7.03;;;;;;;;;;10406477;28;20033;-59
2023/01/04 06:42:45;;;;;;;9.00;7.07;;;;;;;;;;10399683;28;20022;-58
2023/01/04 06:47:46;;;;;;;8.90;6.88;;;;;;;;;;10404492;28;20021;-63
2023/01/04 06:52:47;;;;;;;7.20;6.25;;;;;;;;;;10378215;28;20097;-62
2023/01/04 06:57:47;;;;;;;9.40;6.97;;;;;;;;;;10365424;28;20550;-61
2023/01/04 07:02:47;;;;;;;8.73;6.28;;;;;;;;;;10374516;28;20030;-62
2023/01/04 07:07:47;;;;;;;8.48;6.57;;;;;;;;;;10373246;28;20041;-62
2023/01/04 07:12:48;;;;;;;15.48;6.88;;;;;;;;;;10394760;28;20025;-63
2023/01/04 07:17:49;;;;;;;13.27;6.40;;;;;;;;;;10381489;28;20022;-63
2023/01/04 07:22:49;;;;;;;27.30;7.10;;;;;;;;;;10369706;28;20029;-63
2023/01/04 07:27:51;;;;;;;18.63;6.43;;;;;;;;;;10378269;28;20056;-63
2023/01/04 07:32:54;;;;;;;23.45;6.25;;;;;;;;;;10385333;28;20087;-62
2023/01/04 07:37:54;;;;;;;20.02;6.88;;;;;;;;;;10382739;28;20080;-62
2023/01/04 07:42:56;;;;;;;17.60;6.93;;;;;;;;;;10372025;28;20028;-63
2023/01/04 07:47:56;;;;;;;11.10;5.95;;;;;;;;;;10367415;28;20370;-63
2023/01/04 07:52:56;;;;;;;12.57;6.60;;;;;;;;;;10369735;28;20034;-63
2023/01/04 07:57:57;;;;;;;10.95;6.03;;;;;;;;;;10377269;28;20174;-62
2023/01/04 08:02:57;;;;;;;12.30;6.15;;;;;;;;;;10381461;28;20017;-61
2023/01/04 08:07:57;;;;;;;21.35;6.10;;;;;;;;;;10386793;28;20045;-63
2023/01/04 08:12:58;;;;;;;14.55;5.90;;;;;;;;;;10394985;28;20044;-61
2023/01/04 08:17:59;;;;;;;14.52;6.50;;;;;;;;;;10383922;28;20399;-63
2023/01/04 08:22:59;;;;;;;11.77;6.20;;;;;;;;;;10381369;28;20045;-62
2023/01/04 08:27:59;;;;;;;9.90;5.75;;;;;;;;;;10375148;28;20099;-63
2023/01/04 08:32:59;;;;;;;11.13;5.55;;;;;;;;;;10370015;28;20040;-62
2023/01/04 08:38:00;;;;;;;13.43;5.67;;;;;;;;;;10398349;28;20029;-62
2023/01/04 08:43:00;;;;;;;12.70;5.55;;;;;;;;;;10397279;28;20017;-62
2023/01/04 08:48:00;;;;;;;15.80;6.07;;;;;;;;;;10390459;28;20037;-62
2023/01/04 08:53:01;;;;;;;13.80;5.60;;;;;;;;;;10386754;28;20025;-62
2023/01/04 08:58:02;;;;;;;10.90;5.55;;;;;;;;;;10385929;28;20025;-62
2023/01/04 09:03:03;;;;;;;10.65;5.90;;;;;;;;;;10378584;28;20029;-63
2023/01/04 09:08:04;;;;;;;9.60;5.32;;;;;;;;;;10401200;28;20100;-62
2023/01/04 09:13:04;;;;;;;11.45;6.00;;;;;;;;;;10403706;28;20071;-60
2023/01/04 09:18:06;;;;;;;10.60;6.15;;;;;;;;;;10396969;28;20064;-62
2023/01/04 09:23:07;;;;;;;11.07;5.45;;;;;;;;;;10392840;28;20037;-63
2023/01/04 09:28:07;;;;;;;13.07;5.55;;;;;;;;;;10393611;28;20050;-62
2023/01/04 09:33:07;;;;;;;12.47;5.80;;;;;;;;;;10399206;28;20041;-63
2023/01/04 09:38:07;;;;;;;10.45;5.78;;;;;;;;;;10404016;28;20037;-62
2023/01/04 09:43:14;;;;;;;8.83;5.70;;;;;;;;;;10409361;28;20033;-62
2023/01/04 09:48:18;;;;;;;7.45;5.03;;;;;;;;;;10406811;28;20133;-62
2023/01/04 09:53:18;;;;;;;10.77;5.18;;;;;;;;;;10397832;28;20033;-62
2023/01/04 09:58:39;;;;;;;8.80;5.50;;;;;;;;;;10392732;28;20037;-63
2023/01/04 10:03:44;;;;;;;9.20;4.78;;;;;;;;;;10398878;28;20263;-63
2023/01/04 10:08:45;;;;;;;12.85;4.97;;;;;;;;;;10385344;28;20037;-61
2023/01/04 10:13:48;;;;;;;7.73;4.70;;;;;;;;;;10403944;28;20044;-63
2023/01/04 10:18:52;;;;;;;9.90;5.35;;;;;;;;;;10396661;28;21020;-62
2023/01/04 10:23:56;;;;;;;8.95;5.07;;;;;;;;;;10400920;28;20030;-62
2023/01/04 10:29:14;;;;;;;8.68;5.00;;;;;;;;;;10375047;28;20640;-62
2023/01/04 10:34:18;;;;;;;5.60;4.50;;;;;;;;;;10395734;28;20133;-63
2023/01/04 10:39:20;;;;;;;5.30;4.75;;;;;;;;;;10402202;28;20079;-63
2023/01/04 10:44:21;;;;;;;9.20;4.82;;;;;;;;;;10402548;28;20025;-62
2023/01/04 10:49:28;;;;;;;7.63;4.43;;;;;;;;;;10395697;28;20469;-62
2023/01/04 10:54:55;;;;;;;6.00;5.00;;;;;;;;;;10389846;28;20125;-62
2023/01/04 10:59:57;;;;;;;6.50;4.95;;;;;;;;;;10394587;28;20563;-59
2023/01/04 11:05:18;;;;;;;9.82;5.25;;;;;;;;;;10405468;28;20029;-63
2023/01/04 11:10:21;;;;;;;11.05;5.13;;;;;;;;;;10403157;28;20056;-63
2023/01/04 11:15:21;;;;;;;7.63;4.70;;;;;;;;;;10391745;28;20041;-63
2023/01/04 11:20:21;;;;;;;6.78;4.50;;;;;;;;;;10391312;28;20022;-61
2023/01/04 11:25:22;;;;;;;6.38;4.25;;;;;;;;;;10398391;28;20112;-62
2023/01/04 11:30:24;;;;;;;6.47;4.40;;;;;;;;;;10374028;28;20099;-62
2023/01/04 11:35:45;;;;;;;6.47;4.57;;;;;;;;;;10368635;28;20030;-62
2023/01/04 11:40:54;;;;;;;8.43;5.18;;;;;;;;;;10401702;28;20092;-62
2023/01/04 11:46:05;;;;;;;5.72;4.47;;;;;;;;;;10396540;28;20029;-62
2023/01/04 11:51:14;;;;;;;5.50;4.70;;;;;;;;;;10391771;28;20030;-62
2023/01/04 11:56:21;;;;;;;7.25;4.75;;;;;;;;;;10383904;28;20632;-63
2023/01/04 12:01:23;;;;;;;7.45;4.30;;;;;;;;;;10379406;28;20053;-63
2023/01/04 12:06:35;;;;;;;6.25;4.82;;;;;;;;;;10371687;28;20370;-61
2023/01/04 12:11:38;;;;;;;6.53;4.88;;;;;;;;;;10377220;28;20022;-62
2023/01/04 12:16:52;;;;;;;6.95;4.50;;;;;;;;;;10388428;28;20101;-62
2023/01/04 12:21:54;;;;;;;7.07;4.05;;;;;;;;;;10371515;28;20030;-62
2023/01/04 12:26:55;;;;;;;5.65;4.13;;;;;;;;;;10392174;28;20030;-63
2023/01/04 12:32:01;;;;;;;6.90;4.30;;;;;;;;;;10413331;28;20041;-62
2023/01/04 12:37:03;;;;;;;6.57;4.50;;;;;;;;;;10412492;28;20124;-62
2023/01/04 12:42:08;;;;;;;5.53;4.32;;;;;;;;;;10396164;28;20061;-62
2023/01/04 12:52:40;;;;;;;6.60;4.70;;;;;;;;;;10379620;28;20076;-63
2023/01/04 12:57:41;;;;;;;8.18;4.97;;;;;;;;;;10392606;28;20034;-61
2023/01/04 13:02:51;;;;;;;7.05;4.72;;;;;;;;;;10386774;28;20044;-62
2023/01/04 13:07:55;;;;;;;6.47;4.75;;;;;;;;;;10396617;28;20494;-62
2023/01/04 13:13:19;;;;;;;8.32;4.88;;;;;;;;;;10390667;28;20026;-62
2023/01/04 13:18:32;;;;;;;6.88;4.50;;;;;;;;;;10392625;28;20034;-63
2023/01/04 13:23:32;;;;;;;6.97;4.82;;;;;;;;;;10379644;28;20096;-62
2023/01/04 13:28:34;;;;;;;8.33;4.57;;;;;;;;;;10378732;28;20042;-62
2023/01/04 13:33:35;;;;;;;8.18;5.35;;;;;;;;;;10386120;28;20034;-63
2023/01/04 13:38:38;;;;;;;7.75;5.80;;;;;;;;;;10397949;28;20493;-61
2023/01/04 13:44:13;;;;;;;7.18;5.10;;;;;;;;;;10386015;28;20025;-62
2023/01/04 13:49:15;;;;;;;6.30;5.07;;;;;;;;;;10331922;28;20112;-61
2023/01/04 13:54:20;;;;;;;6.50;5.18;;;;;;;;;;10333463;28;20045;-61
2023/01/04 13:59:20;;;;;;;10.45;5.25;;;;;;;;;;10328095;28;20133;-61
2023/01/04 14:04:25;;;;;;;7.63;4.85;;;;;;;;;;10333928;28;20042;-59
2023/01/04 14:09:29;;;;;;;6.25;5.45;;;;;;;;;;10329440;28;20052;-61
2023/01/04 14:14:33;;;;;;;7.97;5.38;;;;;;;;;;10347659;28;20360;-57
2023/01/04 14:19:42;;;;;;;6.30;4.60;;;;;;;;;;10361369;28;20473;-62
2023/01/04 14:24:42;;;;;;;7.50;5.13;;;;;;;;;;10372437;28;20021;-61
2023/01/04 14:29:43;;;;;;;8.50;5.53;;;;;;;;;;10367498;28;20037;-61
2023/01/04 14:34:43;;;;;;;7.43;5.10;;;;;;;;;;10376376;28;20109;-61
2023/01/04 14:39:43;;;;;;;7.68;4.88;;;;;;;;;;10369653;28;20022;-61
2023/01/04 14:44:44;;;;;;;7.43;5.33;;;;;;;;;;10368636;28;20029;-63
2023/01/04 14:49:44;;;;;;;7.20;5.35;;;;;;;;;;10367737;28;20393;-62
2023/01/04 14:54:44;;;;;;;7.40;5.80;;;;;;;;;;10367126;28;20120;-61
2023/01/04 14:59:45;;;;;;;6.80;5.43;;;;;;;;;;10388072;28;20030;-62
2023/01/04 15:04:45;;;;;;;8.15;5.13;;;;;;;;;;10389894;28;20037;-62
2023/01/04 15:09:45;;;;;;;5.95;4.95;;;;;;;;;;10368040;28;20029;-62
2023/01/04 15:14:45;;;;;;;5.57;4.97;;;;;;;;;;10390737;28;20030;-62
2023/01/04 15:19:46;;;;;;;6.28;5.03;;;;;;;;;;10386430;28;20034;-61
2023/01/04 15:29:50;;;;;;;8.57;5.20;;;;;;;;;;10372738;28;20073;-61
2023/01/04 15:34:51;;;;;;;7.55;5.38;;;;;;;;;;10375108;28;20109;-61
2023/01/04 15:39:51;;;;;;;8.98;5.70;;;;;;;;;;10367470;28;20049;-62
2023/01/04 15:44:51;;;;;;;7.53;5.17;;;;;;;;;;10366881;28;20029;-62
2023/01/04 15:49:51;;;;;;;8.48;5.28;;;;;;;;;;10367150;28;20032;-61
2023/01/04 15:54:52;;;;;;;8.75;5.70;;;;;;;;;;10368378;28;20029;-62
2023/01/04 15:59:52;;;;;;;7.45;5.22;;;;;;;;;;10368007;28;20026;-62
2023/01/04 16:04:53;;;;;;;6.45;5.25;;;;;;;;;;10366220;28;20033;-62
2023/01/04 16:09:53;;;;;;;9.68;5.15;;;;;;;;;;10366745;28;20591;-62
2023/01/04 16:14:53;;;;;;;7.25;5.18;;;;;;;;;;10388359;28;20385;-62
2023/01/04 16:19:53;;;;;;;8.38;5.20;;;;;;;;;;10385808;28;20018;-62
2023/01/04 16:24:54;;;;;;;13.52;5.75;;;;;;;;;;10379088;28;20038;-62
2023/01/04 16:29:54;;;;;;;7.88;5.60;;;;;;;;;;10370693;28;20352;-59
2023/01/04 16:34:54;;;;;;;9.80;6.07;;;;;;;;;;10366195;28;20037;-59
2023/01/04 16:39:55;;;;;;;6.27;4.83;;;;;;;;;;10363827;28;20475;-59
2023/01/04 16:44:55;;;;;;;7.67;5.33;;;;;;;;;;10365750;28;20029;-59
2023/01/04 16:49:55;;;;;;;9.05;5.15;;;;;;;;;;10365449;28;20447;-59
2023/01/04 16:54:56;;;;;;;6.43;5.07;;;;;;;;;;10371452;28;20026;-59
2023/01/04 16:59:56;;;;;;;6.00;5.18;;;;;;;;;;10371939;28;20029;-59
2023/01/04 17:04:58;;;;;;;6.85;5.32;;;;;;;;;;10375057;28;20172;-60
2023/01/04 17:09:59;;;;;;;8.57;5.40;;;;;;;;;;10364378;28;20440;-58
2023/01/04 17:14:59;;;;;;;7.22;5.15;;;;;;;;;;10365278;28;20064;-59
2023/01/04 17:20:00;;;;;;;8.00;6.30;;;;;;;;;;10378474;28;20129;-59
2023/01/04 17:25:00;;;;;;;7.38;6.30;;;;;;;;;;10398797;28;20080;-58
2023/01/04 17:30:01;;;;;;;8.88;6.07;;;;;;;;;;10392720;28;20030;-59
2023/01/04 17:35:01;;;;;;;8.70;6.80;;;;;;;;;;10372484;28;20396;-59
2023/01/04 17:40:01;;;;;;;8.13;6.25;;;;;;;;;;10372153;28;20022;-59
2023/01/04 17:45:02;;;;;;;8.15;6.30;;;;;;;;;;10370773;28;20026;-59
2023/01/04 17:50:02;;;;;;;10.37;6.37;;;;;;;;;;10372457;28;20030;-59
2023/01/04 17:55:03;;;;;;;12.93;6.35;;;;;;;;;;10372518;28;20479;-59
2023/01/04 18:00:04;;;;;;;8.40;6.20;;;;;;;;;;10368266;28;20417;-60
2023/01/04 18:05:04;;;;;;;7.57;6.28;;;;;;;;;;10367290;28;20088;-59
2023/01/04 18:10:05;;;;;;;10.50;6.40;;;;;;;;;;10369351;28;20053;-60
2023/01/04 18:15:05;;;;;;;9.73;6.03;;;;;;;;;;10368704;28;20521;-59
2023/01/04 18:20:06;;;;;;;8.80;6.28;;;;;;;;;;10359746;28;20032;-60
2023/01/04 18:25:06;;;;;;;8.48;6.00;;;;;;;;;;10352056;28;20409;-62
2023/01/04 18:30:07;;;;;;;8.57;6.10;;;;;;;;;;10361500;28;20026;-62
2023/01/04 18:35:08;;;;;;;11.38;6.78;;;;;;;;;;10368723;28;20033;-62
2023/01/04 18:40:08;;;;;;;8.67;6.23;;;;;;;;;;10369148;28;20473;-63
2023/01/04 18:45:09;;;;;;;12.82;7.20;;;;;;;;;;10368131;28;20471;-62
2023/01/04 18:50:09;;;;;;;7.97;6.22;;;;;;;;;;10368131;28;20400;-62
2023/01/04 18:55:10;;;;;;;12.13;6.88;;;;;;;;;;10367425;28;20501;-62
2023/01/04 19:00:10;;;;;;;9.23;6.60;;;;;;;;;;10364245;28;20076;-62
2023/01/04 19:05:12;;;;;;;9.02;6.45;;;;;;;;;;10361266;28;20034;-60
2023/01/04 19:10:12;;;;;;;9.60;6.53;;;;;;;;;;10360783;28;20029;-59
2023/01/04 19:15:12;;;;;;;9.15;7.18;;;;;;;;;;10359028;28;20088;-58
2023/01/04 19:20:13;;;;;;;9.15;7.15;;;;;;;;;;10358411;28;20025;-59
2023/01/04 19:25:13;;;;;;;10.73;7.65;;;;;;;;;;10364207;28;20377;-58
2023/01/04 19:30:13;;;;;;;9.60;6.85;;;;;;;;;;10375838;28;20465;-59
2023/01/04 19:35:13;;;;;;;23.73;9.45;;;;;;;;;;10363130;28;20034;-58
2023/01/04 19:40:14;;;;;;;22.33;10.30;;;;;;;;;;10369693;28;20407;-60
2023/01/04 19:45:14;;;;;;;18.77;10.80;;;;;;;;;;10369308;28;20038;-59
2023/01/04 19:50:14;;;;;;;16.00;11.43;;;;;;;;;;10374998;28;20044;-59
2023/01/04 19:55:15;;;;;;;21.50;12.73;;;;;;;;;;10366055;28;20030;-59
2023/01/04 20:00:15;;;;;;;23.08;12.52;;;;;;;;;;10364554;28;20030;-60
2023/01/04 20:05:16;;;;;;;18.67;12.83;;;;;;;;;;10362489;28;20026;-60
2023/01/04 20:10:16;;;;;;;31.65;13.10;;;;;;;;;;10358931;28;20509;-59
2023/01/04 20:15:16;;;;;;;22.27;14.20;;;;;;;;;;10361622;28;20037;-60
2023/01/04 20:20:17;;;;;;;22.70;14.50;;;;;;;;;;10365076;28;20022;-60
2023/01/04 20:25:18;;;;;;;18.05;12.55;;;;;;;;;;10363513;28;20042;-59
2023/01/04 20:30:18;;;;;;;18.80;12.87;;;;;;;;;;10365063;28;20389;-60
2023/01/04 20:35:19;;;;;;;18.80;13.10;;;;;;;;;;10363224;28;20041;-60
2023/01/04 20:40:20;;;;;;;19.52;12.10;;;;;;;;;;10363778;28;20395;-60
2023/01/04 20:45:20;;;;;;;16.58;12.05;;;;;;;;;;10366334;28;20095;-59
2023/01/04 20:50:20;;;;;;;19.00;12.88;;;;;;;;;;10370869;28;20116;-60
2023/01/04 20:55:20;;;;;;;19.48;11.88;;;;;;;;;;10382037;28;20025;-60
2023/01/04 21:00:21;;;;;;;23.88;12.43;;;;;;;;;;10372262;28;20032;-59
2023/01/04 21:05:22;;;;;;;19.52;12.00;;;;;;;;;;10370915;28;20046;-60
2023/01/04 21:10:22;;;;;;;17.80;12.15;;;;;;;;;;10376592;28;20373;-59
2023/01/04 21:15:22;;;;;;;21.02;11.82;;;;;;;;;;10389097;28;20036;-60
2023/01/04 21:20:23;;;;;;;15.27;11.38;;;;;;;;;;10392829;28;20065;-60
2023/01/04 21:25:23;;;;;;;16.33;11.13;;;;;;;;;;10406618;28;20125;-63
2023/01/04 21:30:23;;;;;;;18.17;11.70;;;;;;;;;;10407730;28;20584;-62
2023/01/04 21:35:25;;;;;;;17.05;11.57;;;;;;;;;;10389913;28;20304;-63
2023/01/04 21:40:27;;;;;;;18.08;11.18;;;;;;;;;;10397958;28;20469;-63
2023/01/04 21:45:27;;;;;;;16.10;11.33;;;;;;;;;;10396819;28;20036;-62
2023/01/04 21:50:29;;;;;;;15.25;11.48;;;;;;;;;;10408602;28;20104;-62
2023/01/04 21:55:29;;;;;;;18.27;11.45;;;;;;;;;;10396987;28;20381;-63
2023/01/04 22:00:30;;;;;;;17.23;10.37;;;;;;;;;;10406483;28;20037;-62
2023/01/04 22:05:30;;;;;;;16.35;10.73;;;;;;;;;;10400595;28;20041;-63
2023/01/04 22:10:30;;;;;;;13.98;10.23;;;;;;;;;;10387311;28;20025;-59
2023/01/04 22:15:31;;;;;;;17.48;11.27;;;;;;;;;;10360583;28;20026;-59
2023/01/04 22:20:31;;;;;;;17.58;11.95;;;;;;;;;;10348344;28;20025;-59
2023/01/04 22:25:35;;;;;;;21.77;13.00;;;;;;;;;;10369690;28;20044;-60
2023/01/04 22:30:38;;;;;;;21.52;13.45;;;;;;;;;;10380225;28;20026;-59
2023/01/04 22:35:39;;;;;;;21.38;13.65;;;;;;;;;;10368679;28;20037;-61
2023/01/04 22:40:40;;;;;;;18.73;13.77;;;;;;;;;;10368570;28;20041;-60
2023/01/04 22:45:40;;;;;;;21.80;13.82;;;;;;;;;;10372035;28;20545;-59
2023/01/04 22:50:40;;;;;;;20.83;13.50;;;;;;;;;;10383726;28;20023;-60
2023/01/04 22:55:40;;;;;;;22.45;13.82;;;;;;;;;;10380170;28;20084;-60
2023/01/04 23:00:41;;;;;;;21.40;14.20;;;;;;;;;;10386170;28;20382;-60
2023/01/04 23:05:41;;;;;;;31.70;13.80;;;;;;;;;;10367923;28;20446;-60
2023/01/04 23:10:41;;;;;;;20.42;14.88;;;;;;;;;;10366762;28;20331;-59
2023/01/04 23:15:41;;;;;;;25.25;14.90;;;;;;;;;;10368579;28;20026;-60
2023/01/04 23:20:42;;;;;;;28.30;15.00;;;;;;;;;;10363137;28;20025;-60
2023/01/04 23:25:42;;;;;;;21.45;14.55;;;;;;;;;;10365902;28;20046;-59
2023/01/04 23:30:42;;;;;;;22.70;14.85;;;;;;;;;;10368447;28;20034;-60
2023/01/04 23:35:43;;;;;;;24.35;14.82;;;;;;;;;;10367487;28;20033;-60
2023/01/04 23:40:47;;;;;;;24.38;13.50;;;;;;;;;;10371805;28;20441;-59
2023/01/04 23:45:47;;;;;;;17.10;13.32;;;;;;;;;;10379958;28;20025;-60
2023/01/04 23:50:56;;;;;;;24.33;13.52;;;;;;;;;;10384748;28;20492;-61
2023/01/04 23:55:57;;;;;;;19.67;14.00;;;;;;;;;;10366675;28;20045;-60
